Time;durP1;ratioP1;P1;durP2;ratioP2;P2;SDS_P1;SDS_P2;PMS_P1;PMS_P2;Temp;Humidity;BMP_temperature;BMP_pressure;BME280_temperature;BME280_humidity;BME280_pressure;Samples;Min_cycle;Max_cycle;Signal;HPM_P1;HPM_P2
2021/03/16 00:01:07;;;;;;;6.23;3.73;;;;;;;5.84;100.00;97622.56;5112830;28;20211;-69
2021/03/16 00:03:34;;;;;;;8.17;4.03;;;;;;;5.82;100.00;97627.53;5112284;28;20196;-70
2021/03/16 00:06:00;;;;;;;8.30;3.87;;;;;;;5.81;100.00;97620.44;5112689;28;20273;-70
2021/03/16 00:08:27;;;;;;;9.20;4.30;;;;;;;5.79;100.00;97625.44;5094682;28;20208;-70
2021/03/16 00:10:53;;;;;;;6.13;3.70;;;;;;;5.80;100.00;97632.50;5112892;28;20720;-69
2021/03/16 00:13:19;;;;;;;8.63;4.17;;;;;;;6.00;100.00;97628.41;5110910;28;20277;-70
2021/03/16 00:15:45;;;;;;;7.57;4.00;;;;;;;5.89;100.00;97627.09;5112573;28;20215;-70
2021/03/16 00:18:15;;;;;;;9.30;3.83;;;;;;;5.76;100.00;97633.47;5112571;27;20208;-70
2021/03/16 00:20:43;;;;;;;5.67;3.70;;;;;;;5.88;100.00;97629.03;5112558;28;20575;-69
2021/03/16 00:23:10;;;;;;;8.83;3.83;;;;;;;5.83;100.00;97631.91;5111712;28;20619;-69
2021/03/16 00:25:37;;;;;;;12.03;3.97;;;;;;;5.88;100.00;97633.69;5112573;28;20224;-69
2021/03/16 00:28:05;;;;;;;9.73;3.70;;;;;;;5.90;100.00;97628.69;5112588;28;20203;-70
2021/03/16 00:30:31;;;;;;;7.80;3.70;;;;;;;5.82;100.00;97635.72;5112397;28;20658;-69
2021/03/16 00:32:57;;;;;;;10.43;3.80;;;;;;;5.88;100.00;97637.25;5111392;28;20222;-70
2021/03/16 00:35:24;;;;;;;7.50;3.40;;;;;;;5.79;100.00;97644.59;5111762;28;20298;-69
2021/03/16 00:37:50;;;;;;;8.77;3.70;;;;;;;5.94;100.00;97646.09;5111901;28;20239;-69
2021/03/16 00:40:17;;;;;;;10.97;3.57;;;;;;;5.91;100.00;97641.28;5111994;28;20239;-69
2021/03/16 00:42:43;;;;;;;9.10;3.70;;;;;;;5.87;100.00;97651.25;5111961;28;20235;-70
2021/03/16 00:45:10;;;;;;;8.77;4.07;;;;;;;5.87;100.00;97649.31;5111968;28;20220;-69
2021/03/16 00:47:37;;;;;;;6.80;3.33;;;;;;;5.94;100.00;97651.59;5112259;28;20338;-70
2021/03/16 00:50:06;;;;;;;11.70;3.77;;;;;;;5.97;100.00;97659.97;5093955;28;20669;-70
2021/03/16 00:52:35;;;;;;;9.10;3.60;;;;;;;5.90;100.00;97654.16;5112089;28;20204;-69
2021/03/16 00:55:02;;;;;;;11.37;3.77;;;;;;;5.95;100.00;97659.47;5111211;28;20204;-70
2021/03/16 00:57:28;;;;;;;12.97;3.90;;;;;;;5.90;100.00;97651.41;5111747;28;20203;-69
2021/03/16 01:33:59;;;;;;;10.07;4.20;;;;;;;5.72;100.00;97674.38;5108348;27;20518;-69
2021/03/16 01:36:25;;;;;;;12.90;4.30;;;;;;;5.86;100.00;97677.81;5108878;28;20227;-70
2021/03/16 01:38:51;;;;;;;11.17;4.13;;;;;;;5.91;100.00;97679.63;5108751;28;20215;-69
2021/03/16 01:41:17;;;;;;;13.23;4.07;;;;;;;5.98;100.00;97674.47;5107967;28;20680;-69
2021/03/16 01:43:43;;;;;;;8.33;4.07;;;;;;;5.76;100.00;97677.28;5109068;28;20249;-70
2021/03/16 01:46:09;;;;;;;10.23;3.60;;;;;;;5.99;100.00;97682.38;5120709;28;20319;-70
2021/03/16 01:48:37;;;;;;;9.23;3.57;;;;;;;5.93;100.00;97675.41;5123046;28;20207;-70
2021/03/16 01:51:09;;;;;;;13.40;4.23;;;;;;;5.78;100.00;97680.50;5120196;28;20341;-70
2021/03/16 01:53:35;;;;;;;7.47;3.43;;;;;;;5.81;100.00;97674.38;5107870;28;20247;-69
2021/03/16 01:56:13;;;;;;;12.83;4.00;;;;;;;5.91;100.00;97680.41;5108272;28;20767;-70
2021/03/16 01:58:42;;;;;;;12.20;3.30;;;;;;;5.92;100.00;97686.69;5107962;28;20713;-69
2021/03/16 02:01:08;;;;;;;10.07;3.60;;;;;;;5.94;100.00;97689.91;5108486;28;20634;-70
2021/03/16 02:03:34;;;;;;;8.40;3.90;;;;;;;5.87;100.00;97695.88;5107901;28;20228;-70
2021/03/16 02:06:04;;;;;;;8.23;4.00;;;;;;;5.99;100.00;97693.31;5108425;28;20256;-69
2021/03/16 02:08:53;;;;;;;8.00;3.60;;;;;;;5.80;100.00;97694.69;5108293;28;20654;-69
2021/03/16 02:11:45;;;;;;;9.20;3.77;;;;;;;5.76;100.00;97682.75;5107877;28;20731;-70
2021/03/16 02:14:29;;;;;;;10.73;4.40;;;;;;;5.83;100.00;97689.41;5107241;28;20203;-68
2021/03/16 02:17:08;;;;;;;8.20;3.77;;;;;;;5.93;100.00;97691.84;5106803;28;20227;-70
2021/03/16 02:20:02;;;;;;;12.97;4.53;;;;;;;5.87;100.00;97693.13;5106273;28;20299;-69
2021/03/16 02:22:30;;;;;;;10.40;4.30;;;;;;;5.73;100.00;97689.66;5106887;28;20203;-68
2021/03/16 02:25:35;;;;;;;10.23;4.40;;;;;;;5.73;100.00;97695.13;5107194;28;20215;-69
2021/03/16 02:28:15;;;;;;;9.40;4.10;;;;;;;5.71;100.00;97691.91;5084724;28;20853;-70
2021/03/16 02:30:43;;;;;;;7.87;4.47;;;;;;;5.57;100.00;97696.69;5068316;28;20856;-70
2021/03/16 02:33:12;;;;;;;11.20;4.00;;;;;;;5.47;100.00;97702.44;5097878;28;20267;-69
2021/03/16 02:35:40;;;;;;;9.03;4.23;;;;;;;5.60;100.00;97701.50;5108287;28;20228;-70
2021/03/16 02:38:09;;;;;;;7.33;3.70;;;;;;;5.40;100.00;97702.06;5108159;28;20856;-69
2021/03/16 02:40:36;;;;;;;7.30;3.70;;;;;;;5.56;100.00;97711.50;5108288;28;20667;-71
2021/03/16 02:43:03;;;;;;;9.93;3.20;;;;;;;5.41;100.00;97703.69;5107397;28;20200;-70
2021/03/16 02:45:31;;;;;;;7.87;2.80;;;;;;;5.67;100.00;97709.28;5093174;28;20221;-70
2021/03/16 02:48:00;;;;;;;5.87;2.70;;;;;;;5.40;100.00;97706.75;5094782;28;20201;-70
2021/03/16 02:50:26;;;;;;;5.33;2.70;;;;;;;5.52;100.00;97709.69;5094546;28;20207;-71
2021/03/16 02:52:54;;;;;;;5.53;2.57;;;;;;;5.52;100.00;97715.16;5093276;28;20228;-70
2021/03/16 02:55:22;;;;;;;8.97;2.70;;;;;;;5.51;100.00;97708.88;5092579;28;20278;-70
2021/03/16 02:57:49;;;;;;;6.17;2.17;;;;;;;5.55;100.00;97709.88;5093844;28;20230;-70
2021/03/16 03:00:17;;;;;;;6.00;2.00;;;;;;;5.49;100.00;97715.81;5092484;28;20211;-70
2021/03/16 03:02:46;;;;;;;7.17;1.90;;;;;;;5.57;100.00;97723.22;5093048;28;20192;-70
2021/03/16 03:05:13;;;;;;;5.40;2.00;;;;;;;5.35;100.00;97715.88;5093398;28;20254;-70
2021/03/16 03:07:41;;;;;;;9.03;2.60;;;;;;;5.44;100.00;97724.94;5093514;28;20744;-70
2021/03/16 03:10:09;;;;;;;6.60;1.97;;;;;;;5.31;100.00;97734.03;5093627;28;20204;-70
2021/03/16 03:12:36;;;;;;;8.53;2.23;;;;;;;5.50;100.00;97740.13;5093273;28;20224;-70
2021/03/16 03:15:05;;;;;;;7.63;2.10;;;;;;;5.59;100.00;97731.94;5092423;28;20292;-70
2021/03/16 03:17:32;;;;;;;8.73;2.63;;;;;;;5.52;100.00;97737.06;5093209;28;20750;-70
2021/03/16 03:19:58;;;;;;;9.90;2.80;;;;;;;5.53;100.00;97741.44;5093007;28;20209;-70
2021/03/16 03:23:02;;;;;;;14.87;3.10;;;;;;;5.54;100.00;97743.84;5093417;28;20231;-71
2021/03/16 03:25:33;;;;;;;8.33;2.53;;;;;;;5.46;100.00;97750.06;5093242;28;20312;-71
2021/03/16 03:28:15;;;;;;;13.00;3.50;;;;;;;5.34;100.00;97751.78;5093393;28;20246;-70
2021/03/16 03:30:42;;;;;;;8.97;2.50;;;;;;;5.38;100.00;97761.78;5093417;28;20212;-70
2021/03/16 03:33:11;;;;;;;8.03;2.67;;;;;;;5.46;100.00;97755.53;5091952;28;20732;-70
2021/03/16 03:35:38;;;;;;;7.33;2.90;;;;;;;5.49;100.00;97757.66;5093152;28;20228;-70
2021/03/16 03:38:06;;;;;;;7.33;2.70;;;;;;;5.57;100.00;97761.56;5091794;28;20239;-70
2021/03/16 03:40:33;;;;;;;7.83;2.83;;;;;;;5.61;100.00;97768.03;5092973;28;20208;-70
2021/03/16 03:43:03;;;;;;;6.60;2.30;;;;;;;5.59;100.00;97757.38;5092362;28;20696;-70
2021/03/16 03:45:30;;;;;;;11.53;3.00;;;;;;;5.56;100.00;97762.69;5092536;28;20622;-69
2021/03/16 03:48:00;;;;;;;5.90;2.77;;;;;;;5.53;100.00;97764.09;5093313;28;20205;-71
2021/03/16 03:50:26;;;;;;;9.10;2.43;;;;;;;5.49;100.00;97765.06;5092834;28;20235;-70
2021/03/16 03:52:53;;;;;;;10.83;3.00;;;;;;;5.41;100.00;97774.84;5092305;28;20224;-71
2021/03/16 03:55:21;;;;;;;9.00;3.50;;;;;;;5.36;100.00;97780.44;5091539;28;20262;-70
2021/03/16 03:57:54;;;;;;;8.20;3.20;;;;;;;5.31;100.00;97785.22;5092759;28;20284;-69
2021/03/16 04:00:21;;;;;;;9.03;3.27;;;;;;;5.31;100.00;97788.75;5092748;28;20628;-71
2021/03/16 04:02:50;;;;;;;7.30;2.87;;;;;;;5.26;100.00;97797.09;5090713;28;20196;-69
2021/03/16 04:05:18;;;;;;;6.73;2.80;;;;;;;5.24;100.00;97796.59;5091127;28;20232;-69
2021/03/16 04:07:44;;;;;;;5.57;2.93;;;;;;;5.10;100.00;97802.16;5092455;28;20204;-70
2021/03/16 04:10:12;;;;;;;9.80;3.30;;;;;;;5.19;100.00;97796.72;5091164;28;20204;-70
2021/03/16 04:12:39;;;;;;;10.10;2.97;;;;;;;5.18;100.00;97809.59;5092582;28;20248;-69
2021/03/16 04:15:09;;;;;;;12.47;3.00;;;;;;;5.18;100.00;97808.81;5091553;28;20283;-69
2021/03/16 04:17:37;;;;;;;7.90;2.50;;;;;;;5.20;100.00;97806.53;5092417;28;20231;-69
2021/03/16 04:20:05;;;;;;;7.03;2.60;;;;;;;5.22;100.00;97807.03;5092351;28;20704;-70
2021/03/16 04:22:32;;;;;;;8.83;2.60;;;;;;;5.21;100.00;97805.44;5093377;28;20204;-70
2021/03/16 04:24:58;;;;;;;9.13;2.50;;;;;;;5.13;100.00;97806.97;5093119;28;20295;-69
2021/03/16 04:27:24;;;;;;;11.60;2.90;;;;;;;5.13;100.00;97809.72;5105800;28;20216;-69
2021/03/16 04:29:51;;;;;;;7.80;2.37;;;;;;;5.04;100.00;97800.63;5107692;28;20236;-73
2021/03/16 04:32:17;;;;;;;9.87;2.37;;;;;;;5.01;100.00;97805.91;5106798;28;20288;-71
2021/03/16 04:34:44;;;;;;;8.47;2.60;;;;;;;5.12;100.00;97805.38;5096566;28;20208;-70
2021/03/16 04:37:10;;;;;;;10.00;2.70;;;;;;;5.21;100.00;97818.28;5092488;28;20294;-70
2021/03/16 04:39:36;;;;;;;7.63;2.13;;;;;;;5.23;100.00;97810.59;5091449;28;20772;-71
2021/03/16 04:42:02;;;;;;;9.47;2.53;;;;;;;5.42;100.00;97820.22;5092109;28;20212;-70
2021/03/16 04:44:28;;;;;;;8.63;2.33;;;;;;;5.31;100.00;97813.38;5091149;28;20300;-70
2021/03/16 04:46:55;;;;;;;13.40;2.70;;;;;;;5.22;100.00;97817.97;5091519;28;20221;-71
2021/03/16 04:49:22;;;;;;;6.57;2.30;;;;;;;5.22;100.00;97819.94;5091733;28;20211;-72
2021/03/16 04:51:48;;;;;;;6.87;1.93;;;;;;;5.23;100.00;97833.28;5091200;28;20247;-71
2021/03/16 04:54:14;;;;;;;12.17;2.53;;;;;;;5.01;100.00;97817.69;5090621;28;20228;-71
2021/03/16 04:56:40;;;;;;;9.33;2.20;;;;;;;5.26;100.00;97826.38;5091374;28;20232;-70
2021/03/16 04:59:06;;;;;;;7.33;2.10;;;;;;;5.39;100.00;97830.97;5091364;28;20305;-69
2021/03/16 05:01:32;;;;;;;11.40;2.47;;;;;;;5.36;100.00;97824.22;5090441;28;20655;-69
2021/03/16 05:03:58;;;;;;;5.67;1.83;;;;;;;5.25;100.00;97830.25;5089173;28;20196;-69
2021/03/16 05:06:24;;;;;;;7.63;2.33;;;;;;;5.25;100.00;97838.44;5090996;28;20641;-70
2021/03/16 05:08:51;;;;;;;5.10;1.63;;;;;;;5.35;100.00;97838.19;5091286;28;20216;-71
2021/03/16 05:11:17;;;;;;;9.83;2.73;;;;;;;5.43;100.00;97841.00;5091378;28;20289;-71
2021/03/16 05:13:44;;;;;;;5.13;1.90;;;;;;;5.46;100.00;97842.28;5090382;28;20228;-70
2021/03/16 05:16:10;;;;;;;10.13;2.00;;;;;;;5.44;100.00;97842.59;5086108;28;20355;-71
2021/03/16 05:18:36;;;;;;;13.20;2.37;;;;;;;5.42;100.00;97853.06;5090674;28;20212;-71
2021/03/16 05:21:03;;;;;;;10.33;2.33;;;;;;;5.29;100.00;97853.94;5091089;28;20754;-70
2021/03/16 05:23:29;;;;;;;8.60;1.97;;;;;;;5.34;100.00;97856.56;5089152;28;20287;-70
2021/03/16 05:25:55;;;;;;;10.70;1.93;;;;;;;5.26;100.00;97857.28;5091185;28;20238;-70
2021/03/16 05:28:22;;;;;;;6.07;1.87;;;;;;;5.26;100.00;97857.28;5091755;28;20204;-70
2021/03/16 05:30:48;;;;;;;5.43;1.83;;;;;;;5.36;100.00;97864.44;5092861;28;20204;-71
2021/03/16 05:33:18;;;;;;;9.43;2.17;;;;;;;5.34;100.00;97867.50;5097151;28;20232;-71
2021/03/16 05:35:45;;;;;;;10.57;2.30;;;;;;;5.33;100.00;97871.31;5094940;28;20316;-72
2021/03/16 05:38:12;;;;;;;6.80;2.30;;;;;;;5.40;100.00;97871.69;5093684;28;20291;-71
2021/03/16 05:40:39;;;;;;;10.97;2.50;;;;;;;5.42;100.00;97868.69;5091027;28;20208;-71
2021/03/16 05:43:06;;;;;;;5.93;2.17;;;;;;;5.34;100.00;97881.16;5089477;28;20250;-71
2021/03/16 05:45:32;;;;;;;8.70;2.13;;;;;;;5.44;100.00;97880.91;5091240;28;20256;-70
2021/03/16 05:47:59;;;;;;;8.07;2.20;;;;;;;5.45;100.00;97876.25;5090780;28;20250;-70
2021/03/16 05:50:25;;;;;;;10.60;2.90;;;;;;;5.53;100.00;97886.47;5090985;28;20616;-71
2021/03/16 05:52:55;;;;;;;12.17;2.20;;;;;;;5.36;100.00;97891.78;5090128;28;20608;-71
2021/03/16 05:55:23;;;;;;;7.30;2.40;;;;;;;5.50;100.00;97900.75;5089358;28;20224;-72
2021/03/16 05:57:50;;;;;;;8.57;2.47;;;;;;;5.48;100.00;97906.53;5090614;28;20623;-72
2021/03/16 06:00:17;;;;;;;7.00;2.20;;;;;;;5.55;100.00;97906.09;5090381;28;20865;-71
2021/03/16 06:02:43;;;;;;;9.17;2.53;;;;;;;5.71;100.00;97910.09;5089745;28;20255;-71
2021/03/16 06:05:10;;;;;;;10.33;2.50;;;;;;;5.49;100.00;97910.88;5090639;28;20239;-71
2021/03/16 06:07:36;;;;;;;11.07;2.63;;;;;;;5.64;100.00;97921.47;5090738;28;20205;-70
2021/03/16 06:10:03;;;;;;;7.97;2.67;;;;;;;5.64;100.00;97926.94;5090457;28;20304;-72
2021/03/16 06:12:33;;;;;;;9.83;2.80;;;;;;;5.64;100.00;97931.63;5090983;28;20252;-71
2021/03/16 06:15:17;;;;;;;13.27;2.80;;;;;;;5.64;100.00;97926.16;5089423;28;20200;-73
2021/03/16 06:17:54;;;;;;;8.03;3.03;;;;;;;5.73;100.00;97941.50;5090574;28;20254;-71
2021/03/16 06:20:31;;;;;;;7.47;2.57;;;;;;;5.85;100.00;97933.59;5072932;28;20212;-70
2021/03/16 06:23:11;;;;;;;6.23;2.87;;;;;;;5.54;100.00;97942.81;5073407;28;20730;-72
2021/03/16 06:25:42;;;;;;;7.40;2.77;;;;;;;5.60;100.00;97947.84;5073742;28;20225;-72
2021/03/16 06:28:10;;;;;;;9.87;3.33;;;;;;;5.64;100.00;97943.38;5073967;28;20254;-71
2021/03/16 06:30:38;;;;;;;9.33;3.10;;;;;;;5.47;100.00;97958.84;5090501;28;20205;-72
2021/03/16 06:33:22;;;;;;;8.70;3.17;;;;;;;5.60;100.00;97966.22;5093428;28;20716;-70
2021/03/16 06:36:08;;;;;;;10.17;3.13;;;;;;;5.62;100.00;97970.25;5093880;28;20228;-74
2021/03/16 06:38:37;;;;;;;9.17;2.77;;;;;;;5.58;100.00;97971.19;5093347;28;20254;-71
2021/03/16 06:41:13;;;;;;;6.40;3.40;;;;;;;5.54;100.00;97965.53;5093585;28;20622;-71
2021/03/16 06:43:42;;;;;;;9.27;2.83;;;;;;;5.58;100.00;97982.13;5076520;28;20235;-69
2021/03/16 06:46:08;;;;;;;8.43;3.20;;;;;;;5.46;100.00;97977.19;5094008;28;20231;-72
2021/03/16 06:48:37;;;;;;;7.90;2.90;;;;;;;5.35;100.00;97973.06;5092520;28;20205;-72
2021/03/16 06:51:14;;;;;;;8.20;3.20;;;;;;;5.46;100.00;97979.91;5093743;28;20207;-72
2021/03/16 06:53:40;;;;;;;10.53;3.20;;;;;;;5.49;100.00;97984.78;5092968;28;20243;-70
2021/03/16 06:56:14;;;;;;;8.77;3.40;;;;;;;5.60;100.00;97990.84;5092441;28;20228;-71
2021/03/16 06:58:41;;;;;;;9.07;3.20;;;;;;;5.59;100.00;98000.97;5093144;28;20208;-71
2021/03/16 07:01:13;;;;;;;9.03;2.93;;;;;;;5.58;100.00;98009.50;5093817;28;20265;-71
2021/03/16 07:03:42;;;;;;;7.33;2.80;;;;;;;5.70;100.00;98007.03;5092742;28;20224;-71
2021/03/16 07:06:14;;;;;;;7.20;2.93;;;;;;;5.65;100.00;98015.34;5093264;28;20723;-72
2021/03/16 07:08:42;;;;;;;9.27;3.60;;;;;;;5.81;100.00;98011.97;5099124;28;20212;-72
2021/03/16 07:11:12;;;;;;;6.37;2.80;;;;;;;5.75;100.00;98015.94;5110565;28;20208;-71
2021/03/16 07:13:39;;;;;;;7.33;2.53;;;;;;;5.76;100.00;98017.56;5112869;28;20235;-72
2021/03/16 07:16:07;;;;;;;8.33;2.67;;;;;;;5.88;100.00;98015.09;5107396;28;20283;-70
2021/03/16 07:18:37;;;;;;;9.17;3.30;;;;;;;5.81;100.00;98013.88;5094104;28;20700;-71
2021/03/16 07:21:06;;;;;;;8.17;2.80;;;;;;;5.78;100.00;98026.28;5076149;28;20200;-71
2021/03/16 07:23:44;;;;;;;9.27;2.90;;;;;;;5.62;100.00;98022.25;5093010;28;20329;-71
2021/03/16 07:26:11;;;;;;;8.77;3.20;;;;;;;5.76;100.00;98030.44;5092041;28;20704;-71
2021/03/16 07:28:37;;;;;;;11.43;3.03;;;;;;;5.85;100.00;98032.16;5093711;28;20280;-72
2021/03/16 07:31:04;;;;;;;10.20;3.47;;;;;;;5.88;100.00;98023.31;5096302;28;20915;-72
2021/03/16 07:33:34;;;;;;;8.03;2.67;;;;;;;5.76;100.00;98028.50;5095985;28;20232;-70
2021/03/16 07:36:00;;;;;;;10.50;2.73;;;;;;;5.91;100.00;98036.38;5076473;28;20603;-69
2021/03/16 07:38:27;;;;;;;6.63;2.70;;;;;;;5.92;100.00;98038.03;5093173;28;20210;-73
2021/03/16 07:40:54;;;;;;;8.53;2.97;;;;;;;5.90;100.00;98040.25;5093231;28;20205;-71
2021/03/16 07:43:36;;;;;;;9.37;2.53;;;;;;;6.18;100.00;98041.75;5093989;28;20646;-71
2021/03/16 07:46:16;;;;;;;9.23;2.80;;;;;;;6.25;100.00;98040.50;5094588;28;20236;-70
2021/03/16 07:48:55;;;;;;;11.33;2.90;;;;;;;6.29;100.00;98047.00;5094070;28;20208;-72
2021/03/16 07:51:31;;;;;;;8.97;2.70;;;;;;;6.31;100.00;98044.75;5099020;28;20222;-72
2021/03/16 07:54:03;;;;;;;11.00;2.97;;;;;;;6.41;100.00;98042.56;5078568;28;20233;-72
2021/03/16 07:56:32;;;;;;;11.50;2.63;;;;;;;6.54;100.00;98051.84;5079966;28;20288;-72
2021/03/16 07:59:00;;;;;;;9.87;3.50;;;;;;;6.78;100.00;98049.56;5075093;28;20197;-72
2021/03/16 08:01:26;;;;;;;11.67;2.83;;;;;;;6.95;100.00;98049.66;5074484;28;20235;-71
2021/03/16 08:04:10;;;;;;;12.93;2.73;;;;;;;7.03;100.00;98054.34;5089287;28;20869;-72
2021/03/16 08:06:36;;;;;;;7.13;2.70;;;;;;;7.22;100.00;98054.09;5093579;28;20224;-72
2021/03/16 08:09:04;;;;;;;8.67;2.57;;;;;;;6.95;100.00;98049.66;5093520;28;20212;-70
2021/03/16 08:11:42;;;;;;;12.40;2.30;;;;;;;7.49;100.00;98054.69;5093527;28;20204;-70
2021/03/16 08:14:09;;;;;;;8.53;2.97;;;;;;;7.74;100.00;98056.66;5092307;28;20224;-71
2021/03/16 08:16:41;;;;;;;8.60;2.30;;;;;;;7.87;100.00;98057.66;5093283;28;20749;-72
2021/03/16 08:19:18;;;;;;;8.23;2.50;;;;;;;7.55;100.00;98058.91;5092765;28;20209;-71
2021/03/16 08:21:45;;;;;;;8.20;2.47;;;;;;;7.53;100.00;98061.16;5094085;28;20222;-72
2021/03/16 08:24:14;;;;;;;10.37;2.60;;;;;;;7.76;100.00;98065.41;5092966;28;20239;-72
2021/03/16 08:26:46;;;;;;;8.43;2.60;;;;;;;7.75;100.00;98065.72;5094246;28;20721;-74
2021/03/16 08:29:13;;;;;;;10.13;3.07;;;;;;;7.60;100.00;98075.22;5096583;28;20204;-72
2021/03/16 08:31:40;;;;;;;8.93;2.40;;;;;;;7.65;100.00;98075.06;5096649;28;20208;-73
2021/03/16 08:34:08;;;;;;;9.23;2.67;;;;;;;7.52;100.00;98078.75;5093672;28;20216;-73
2021/03/16 08:36:52;;;;;;;9.50;2.63;;;;;;;7.67;100.00;98083.81;5092403;28;20224;-72
2021/03/16 08:39:21;;;;;;;5.17;1.80;;;;;;;7.53;100.00;98080.38;5093165;28;20238;-73
2021/03/16 08:42:00;;;;;;;6.13;2.00;;;;;;;7.72;100.00;98091.88;5091786;28;20204;-73
2021/03/16 08:44:28;;;;;;;8.53;1.53;;;;;;;8.18;100.00;98091.28;5092370;28;20227;-73
2021/03/16 08:46:56;;;;;;;7.23;1.93;;;;;;;8.37;100.00;98085.50;5092616;28;20780;-72
2021/03/16 08:49:24;;;;;;;7.63;2.00;;;;;;;7.69;100.00;98089.78;5092571;28;20213;-72
2021/03/16 08:51:52;;;;;;;9.73;2.03;;;;;;;7.52;100.00;98086.97;5092388;28;20243;-73
2021/03/16 08:54:28;;;;;;;9.90;2.10;;;;;;;7.96;100.00;98103.25;5091129;28;20596;-73
2021/03/16 08:56:54;;;;;;;9.43;1.70;;;;;;;8.93;100.00;98102.59;5092367;28;20232;-72
2021/03/16 08:59:21;;;;;;;8.13;1.87;;;;;;;9.97;100.00;98101.81;5092723;28;20205;-73
2021/03/16 09:01:51;;;;;;;7.10;2.07;;;;;;;10.14;100.00;98095.41;5092495;28;20567;-73
2021/03/16 09:04:19;;;;;;;7.50;1.90;;;;;;;11.89;100.00;98089.00;5090694;28;20196;-72
2021/03/16 09:06:49;;;;;;;7.10;1.60;;;;;;;12.96;100.00;98094.56;5091712;28;20602;-72
2021/03/16 09:09:23;;;;;;;4.50;1.70;;;;;;;13.14;100.00;98093.09;5090788;28;20247;-73
2021/03/16 09:11:49;;;;;;;6.80;1.70;;;;;;;13.39;100.00;98091.81;5091277;28;20738;-74
2021/03/16 09:14:18;;;;;;;4.80;1.67;;;;;;;11.20;100.00;98094.56;5090324;28;20263;-74
2021/03/16 09:16:47;;;;;;;5.47;1.87;;;;;;;10.20;100.00;98094.84;5090858;28;20721;-74
2021/03/16 09:19:17;;;;;;;8.73;1.80;;;;;;;9.82;100.00;98102.38;5091410;28;20212;-74
2021/03/16 09:22:00;;;;;;;5.67;1.90;;;;;;;10.01;100.00;98094.50;5091309;28;20232;-74
2021/03/16 09:24:28;;;;;;;5.77;1.60;;;;;;;9.50;100.00;98103.03;5090986;28;20196;-72
2021/03/16 09:26:57;;;;;;;5.33;1.40;;;;;;;9.30;100.00;98098.25;5091607;28;20373;-72
2021/03/16 09:29:32;;;;;;;4.53;1.37;;;;;;;9.05;100.00;98112.94;5093272;28;20295;-73
2021/03/16 09:32:12;;;;;;;5.73;1.50;;;;;;;8.66;100.00;98108.47;5094035;28;20220;-73
2021/03/16 09:34:44;;;;;;;5.47;1.53;;;;;;;8.80;100.00;98111.03;5093802;28;20224;-73
2021/03/16 09:37:16;;;;;;;6.07;1.30;;;;;;;9.50;100.00;98104.97;5092565;28;20251;-73
2021/03/16 09:39:53;;;;;;;5.37;1.53;;;;;;;11.82;100.00;98108.94;5091830;28;20197;-77
2021/03/16 09:42:30;;;;;;;5.80;1.50;;;;;;;13.03;100.00;98100.31;5090903;28;20208;-76
2021/03/16 09:44:58;;;;;;;5.73;1.20;;;;;;;11.58;100.00;98100.59;5088238;28;20789;-77
2021/03/16 09:47:36;;;;;;;3.73;1.17;;;;;;;10.24;100.00;98102.47;5090335;28;20204;-78
2021/03/16 09:50:09;;;;;;;4.47;1.30;;;;;;;10.18;100.00;98108.16;5101296;28;20205;-77
2021/03/16 09:52:35;;;;;;;6.10;1.30;;;;;;;9.52;100.00;98106.28;5117260;28;20196;-74
2021/03/16 09:55:03;;;;;;;6.70;1.60;;;;;;;9.29;100.00;98113.16;5120171;28;20184;-74
2021/03/16 09:57:35;;;;;;;5.27;1.40;;;;;;;9.28;100.00;98111.56;5106135;28;20226;-75
2021/03/16 10:00:06;;;;;;;5.20;1.50;;;;;;;9.30;100.00;98114.78;5095902;28;20782;-74
2021/03/16 10:02:42;;;;;;;2.67;1.00;;;;;;;9.66;100.00;98117.06;5094764;28;20189;-74
2021/03/16 10:05:14;;;;;;;3.77;1.50;;;;;;;9.70;100.00;98123.53;5095325;28;20208;-74
2021/03/16 10:07:52;;;;;;;4.13;1.30;;;;;;;9.75;100.00;98121.38;5094231;28;20227;-73
2021/03/16 10:10:21;;;;;;;3.13;0.83;;;;;;;8.98;100.00;98129.13;5094391;28;20299;-74
2021/03/16 10:12:53;;;;;;;6.63;1.33;;;;;;;8.77;100.00;98122.69;5094158;28;20653;-73
2021/03/16 10:15:22;;;;;;;8.10;1.53;;;;;;;8.48;100.00;98126.13;5094121;28;20663;-73
2021/03/16 10:17:49;;;;;;;2.33;0.93;;;;;;;8.68;100.00;98130.13;5093966;28;20231;-73
2021/03/16 10:20:20;;;;;;;2.50;1.10;;;;;;;8.64;100.00;98126.41;5094549;28;20295;-74
2021/03/16 10:22:59;;;;;;;5.30;1.23;;;;;;;8.67;100.00;98128.50;5093970;28;20239;-74
2021/03/16 10:25:28;;;;;;;4.23;1.20;;;;;;;8.79;100.00;98131.44;5095572;28;20311;-75
2021/03/16 10:27:56;;;;;;;5.33;1.23;;;;;;;8.95;100.00;98135.28;5093322;28;20208;-73
2021/03/16 10:30:32;;;;;;;5.50;1.57;;;;;;;8.84;100.00;98125.75;5093499;28;20303;-75
2021/03/16 10:33:07;;;;;;;5.33;1.10;;;;;;;8.65;100.00;98125.31;5094224;28;20347;-73
2021/03/16 10:35:35;;;;;;;6.23;1.30;;;;;;;8.96;100.00;98126.69;5093507;28;20740;-74
2021/03/16 10:38:03;;;;;;;6.97;0.90;;;;;;;8.85;100.00;98130.13;5094640;28;20193;-74
2021/03/16 10:40:30;;;;;;;2.57;1.10;;;;;;;8.89;100.00;98137.41;5089331;28;20818;-74
2021/03/16 10:42:57;;;;;;;4.30;1.00;;;;;;;9.19;100.00;98138.31;5092710;28;20201;-75
2021/03/16 10:45:24;;;;;;;5.03;0.93;;;;;;;9.02;100.00;98130.09;5093217;28;20228;-76
2021/03/16 10:47:50;;;;;;;3.60;1.37;;;;;;;9.23;100.00;98136.53;5093615;28;20261;-74
2021/03/16 10:50:17;;;;;;;3.70;1.20;;;;;;;9.72;100.00;98138.59;5091982;28;20555;-73
2021/03/16 10:52:43;;;;;;;6.20;1.60;;;;;;;9.54;100.00;98131.53;5092980;28;20299;-72
2021/03/16 10:55:09;;;;;;;8.93;2.03;;;;;;;8.97;100.00;98135.75;5093115;28;20591;-70
2021/03/16 10:57:36;;;;;;;6.57;1.70;;;;;;;8.44;100.00;98138.06;5093399;28;20244;-70
2021/03/16 11:00:07;;;;;;;6.03;1.10;;;;;;;8.34;100.00;98141.16;5093031;28;20238;-71
2021/03/16 11:02:33;;;;;;;3.50;1.40;;;;;;;8.18;100.00;98140.78;5093153;28;20669;-71
2021/03/16 11:05:00;;;;;;;6.17;1.30;;;;;;;8.33;100.00;98151.34;5091933;28;20307;-71
2021/03/16 11:07:26;;;;;;;9.50;2.00;;;;;;;8.54;100.00;98140.50;5094191;28;20627;-70
2021/03/16 11:09:52;;;;;;;6.80;1.53;;;;;;;9.13;100.00;98148.69;5094732;28;20346;-72
2021/03/16 11:12:19;;;;;;;5.63;2.63;;;;;;;9.30;100.00;98142.31;5093984;28;20223;-71
2021/03/16 11:14:45;;;;;;;6.00;1.50;;;;;;;9.13;100.00;98153.38;5085657;28;20224;-71
2021/03/16 11:17:12;;;;;;;4.73;1.50;;;;;;;9.52;100.00;98150.34;5085419;28;20228;-71
2021/03/16 11:19:39;;;;;;;5.73;1.50;;;;;;;9.33;100.00;98152.66;5093462;28;20208;-70
2021/03/16 11:22:16;;;;;;;3.63;1.33;;;;;;;9.73;100.00;98140.19;5093125;28;20204;-70
2021/03/16 11:24:42;;;;;;;4.03;1.40;;;;;;;9.56;100.00;98156.78;5091952;28;20201;-70
2021/03/16 11:27:09;;;;;;;4.23;1.17;;;;;;;9.46;100.00;98146.16;5094369;28;20312;-71
2021/03/16 11:29:35;;;;;;;5.37;1.47;;;;;;;9.06;100.00;98153.06;5094577;28;20616;-70
2021/03/16 11:32:01;;;;;;;7.57;1.63;;;;;;;8.78;100.00;98157.31;5093035;28;20220;-70
2021/03/16 11:34:30;;;;;;;3.53;1.30;;;;;;;9.11;100.00;98158.41;5092138;28;20224;-70
2021/03/16 11:36:57;;;;;;;2.10;1.00;;;;;;;8.62;100.00;98159.75;5093061;28;20261;-73
2021/03/16 11:39:23;;;;;;;8.57;1.50;;;;;;;8.73;100.00;98151.97;5092140;28;20228;-73
2021/03/16 11:41:49;;;;;;;4.07;1.10;;;;;;;8.94;100.00;98155.69;5092922;28;20559;-74
2021/03/16 11:44:15;;;;;;;5.60;1.60;;;;;;;9.50;100.00;98155.38;5092465;28;20253;-74
2021/03/16 11:46:41;;;;;;;5.60;0.90;;;;;;;9.54;100.00;98153.59;5093954;28;20713;-74
2021/03/16 11:49:08;;;;;;;3.13;1.00;;;;;;;9.02;100.00;98163.13;5093508;28;20298;-73
2021/03/16 11:51:34;;;;;;;3.77;1.07;;;;;;;8.94;100.00;98161.19;5093308;28;20569;-74
2021/03/16 11:54:00;;;;;;;4.57;1.13;;;;;;;8.83;100.00;98155.19;5091551;28;20252;-73
2021/03/16 11:56:26;;;;;;;3.40;0.80;;;;;;;8.64;100.00;98167.69;5092229;28;20277;-73
2021/03/16 11:58:52;;;;;;;3.07;0.90;;;;;;;8.74;100.00;98157.16;5092815;28;20204;-73
2021/03/16 12:01:18;;;;;;;3.13;1.13;;;;;;;8.89;100.00;98170.41;5093033;28;20211;-73
2021/03/16 12:03:44;;;;;;;1.70;0.70;;;;;;;8.99;100.00;98163.78;5092780;28;20208;-74
2021/03/16 12:06:11;;;;;;;3.07;1.20;;;;;;;8.76;100.00;98163.13;5092035;28;20854;-73
2021/03/16 12:08:38;;;;;;;3.87;1.50;;;;;;;8.88;100.00;98165.25;5093137;28;20299;-72
2021/03/16 12:11:05;;;;;;;5.40;1.30;;;;;;;8.99;100.00;98167.34;5091791;28;20247;-72
2021/03/16 12:13:32;;;;;;;2.97;0.93;;;;;;;9.02;100.00;98163.13;5092201;28;20571;-73
2021/03/16 12:15:58;;;;;;;4.47;1.10;;;;;;;9.14;100.00;98149.50;5075818;28;20266;-73